Time;durP1;ratioP1;P1;durP2;ratioP2;P2;SDS_P1;SDS_P2;PMS_P1;PMS_P2;Temp;Humidity;BMP_temperature;BMP_pressure;BME280_temperature;BME280_humidity;BME280_pressure;Samples;Min_cycle;Max_cycle;Signal;HPM_P1;HPM_P2
2022/10/13 00:02:09;;;;;;;49.22;47.13;;;;;;;8.90;100.00;101867.50;5060289;28;20373;-72
2022/10/13 00:04:35;;;;;;;48.10;45.90;;;;;;;8.92;100.00;101865.59;5061574;28;20028;-73
2022/10/13 00:07:00;;;;;;;42.08;40.00;;;;;;;8.93;100.00;101861.16;5060029;28;20060;-74
2022/10/13 00:09:25;;;;;;;48.58;46.38;;;;;;;8.95;100.00;101857.47;5060568;28;20024;-72
2022/10/13 00:11:51;;;;;;;46.65;44.47;;;;;;;8.95;100.00;101852.22;5060066;28;20036;-73
2022/10/13 00:14:16;;;;;;;48.75;46.80;;;;;;;8.94;100.00;101844.44;5061254;28;20735;-73
2022/10/13 00:16:41;;;;;;;47.88;45.67;;;;;;;8.81;100.00;101833.97;5059202;28;20036;-73
2022/10/13 00:19:07;;;;;;;43.13;40.85;;;;;;;8.92;100.00;101857.69;5060154;28;20033;-73
2022/10/13 00:21:32;;;;;;;47.50;44.78;;;;;;;8.91;100.00;101868.34;5060026;28;20039;-73
2022/10/13 00:23:58;;;;;;;41.55;39.65;;;;;;;8.90;100.00;101856.97;5059700;28;20033;-73
2022/10/13 00:26:25;;;;;;;49.35;46.83;;;;;;;8.91;100.00;101861.28;5060738;28;20115;-73
2022/10/13 00:28:50;;;;;;;41.72;39.58;;;;;;;8.92;100.00;101852.44;5060151;28;20033;-73
2022/10/13 00:31:26;;;;;;;48.90;46.60;;;;;;;8.93;100.00;101858.53;5059988;28;20043;-74
2022/10/13 00:33:52;;;;;;;43.22;41.17;;;;;;;8.91;100.00;101848.13;5060616;28;20135;-73
2022/10/13 00:36:19;;;;;;;40.08;37.90;;;;;;;8.94;100.00;101840.00;5062163;28;20111;-73
2022/10/13 00:38:44;;;;;;;35.92;33.95;;;;;;;8.95;100.00;101849.59;5058713;28;20025;-73
2022/10/13 00:41:09;;;;;;;42.88;40.78;;;;;;;8.95;100.00;101836.41;5060703;28;20089;-73
2022/10/13 00:44:01;;;;;;;37.97;35.58;;;;;;;8.99;100.00;101843.13;5059613;28;20040;-73
2022/10/13 00:46:36;;;;;;;42.70;40.60;;;;;;;8.88;100.00;101821.19;5058974;28;21417;-73
2022/10/13 00:49:13;;;;;;;37.72;35.63;;;;;;;8.98;100.00;101843.25;5061613;28;20044;-73
2022/10/13 00:51:41;;;;;;;44.85;42.38;;;;;;;9.02;100.00;101839.44;5060161;28;20028;-73
2022/10/13 00:54:10;;;;;;;43.22;40.70;;;;;;;8.96;100.00;101829.34;5058249;28;20090;-73
2022/10/13 00:56:37;;;;;;;44.92;42.80;;;;;;;8.98;100.00;101833.53;5060138;28;21817;-73
2022/10/13 00:59:07;;;;;;;46.92;44.38;;;;;;;9.02;100.00;101842.91;5058239;28;20028;-73
2022/10/13 01:01:33;;;;;;;40.35;38.05;;;;;;;9.00;100.00;101829.00;5061076;28;20029;-73
2022/10/13 01:03:59;;;;;;;42.45;40.30;;;;;;;8.99;100.00;101840.50;5059307;28;20025;-73
2022/10/13 01:06:24;;;;;;;44.42;42.20;;;;;;;8.97;100.00;101841.53;5058759;28;20495;-73
2022/10/13 01:08:50;;;;;;;45.42;43.30;;;;;;;8.93;100.00;101840.97;5059001;28;20028;-73
2022/10/13 01:11:31;;;;;;;43.28;41.20;;;;;;;8.92;100.00;101828.72;5060487;28;20036;-72
2022/10/13 01:14:35;;;;;;;39.97;37.75;;;;;;;8.93;100.00;101829.56;5066634;28;20056;-73
2022/10/13 01:17:26;;;;;;;36.83;34.80;;;;;;;8.88;100.00;101819.38;5059345;28;20036;-73
2022/10/13 01:20:19;;;;;;;34.70;32.55;;;;;;;8.88;100.00;101816.75;5055440;28;20056;-72
2022/10/13 01:22:55;;;;;;;31.25;29.35;;;;;;;8.87;100.00;101817.72;5059556;28;20029;-73
2022/10/13 01:25:49;;;;;;;34.80;33.13;;;;;;;8.84;100.00;101816.16;5058481;28;20028;-72
2022/10/13 01:28:36;;;;;;;37.22;35.08;;;;;;;8.84;100.00;101810.91;5058361;28;20090;-72
2022/10/13 01:31:11;;;;;;;31.73;29.48;;;;;;;8.81;100.00;101808.47;5059079;28;20039;-72
2022/10/13 01:33:39;;;;;;;34.38;31.95;;;;;;;8.82;100.00;101794.38;5065373;28;20035;-73
2022/10/13 01:36:42;;;;;;;34.00;32.13;;;;;;;8.80;100.00;101798.91;5056558;28;20033;-73
2022/10/13 01:39:21;;;;;;;31.00;29.27;;;;;;;8.78;100.00;101794.72;5058372;28;20029;-72
2022/10/13 01:41:52;;;;;;;29.30;27.95;;;;;;;8.82;100.00;101799.63;5059076;28;20124;-72
2022/10/13 01:44:28;;;;;;;31.88;30.20;;;;;;;8.81;100.00;101795.31;5059879;28;20024;-72
2022/10/13 01:46:54;;;;;;;32.58;30.85;;;;;;;8.77;100.00;101785.13;5060261;28;20070;-73
2022/10/13 01:49:25;;;;;;;33.13;31.08;;;;;;;8.80;100.00;101787.56;5058686;28;20453;-71
2022/10/13 01:51:53;;;;;;;33.85;31.30;;;;;;;8.78;100.00;101785.03;5057996;28;20119;-73
2022/10/13 01:54:19;;;;;;;32.28;30.42;;;;;;;8.80;100.00;101782.28;5058376;28;20146;-73
2022/10/13 01:56:52;;;;;;;34.72;32.83;;;;;;;8.78;100.00;101777.13;5060555;28;20464;-73
2022/10/13 01:59:18;;;;;;;36.28;34.20;;;;;;;8.81;100.00;101770.78;5057345;28;20032;-73
2022/10/13 02:02:09;;;;;;;36.30;34.33;;;;;;;8.83;100.00;101771.50;5058854;28;20032;-73
2022/10/13 02:05:09;;;;;;;39.33;37.10;;;;;;;8.81;100.00;101762.91;5058806;28;20477;-73
2022/10/13 02:07:35;;;;;;;34.72;32.97;;;;;;;8.83;100.00;101753.91;5017843;28;20044;-73
2022/10/13 02:10:26;;;;;;;33.85;30.58;;;;;;;8.84;100.00;101744.22;5016740;28;20049;-73
2022/10/13 02:13:06;;;;;;;35.35;33.50;;;;;;;8.68;100.00;101725.31;5017766;28;20068;-73
2022/10/13 02:15:38;;;;;;;35.93;33.83;;;;;;;8.81;100.00;101753.19;5017443;28;20753;-71
2022/10/13 02:18:06;;;;;;;35.50;33.45;;;;;;;8.84;100.00;101754.75;5018492;28;20797;-73
2022/10/13 02:20:32;;;;;;;37.05;34.85;;;;;;;8.82;100.00;101747.00;5016816;28;20038;-72
2022/10/13 02:23:06;;;;;;;33.13;31.20;;;;;;;8.82;100.00;101748.78;5016929;28;20128;-72
2022/10/13 02:25:32;;;;;;;34.80;32.25;;;;;;;8.77;100.00;101732.50;5017290;28;20033;-71
2022/10/13 02:28:00;;;;;;;35.45;33.45;;;;;;;8.80;100.00;101745.44;5016972;28;20041;-73
2022/10/13 02:30:28;;;;;;;30.75;29.02;;;;;;;8.76;100.00;101747.47;5017599;28;20432;-72
2022/10/13 02:32:54;;;;;;;32.47;30.48;;;;;;;8.72;100.00;101737.28;5017665;28;20030;-73
2022/10/13 02:35:19;;;;;;;37.05;34.85;;;;;;;8.78;100.00;101755.25;5001022;28;20428;-72
2022/10/13 02:37:45;;;;;;;34.95;33.35;;;;;;;8.74;100.00;101743.25;5017547;28;20099;-73
2022/10/13 02:40:11;;;;;;;37.47;34.85;;;;;;;8.59;100.00;101734.72;5017076;28;20048;-72
2022/10/13 02:42:37;;;;;;;33.75;31.95;;;;;;;8.68;100.00;101744.56;5056120;28;20028;-72
2022/10/13 02:45:03;;;;;;;34.85;32.78;;;;;;;8.65;100.00;101745.63;5059240;28;20028;-72
2022/10/13 02:47:28;;;;;;;34.90;32.65;;;;;;;8.64;100.00;101745.72;5058814;28;20492;-72
2022/10/13 02:49:54;;;;;;;33.28;31.13;;;;;;;8.67;100.00;101731.50;5057469;28;20043;-72
2022/10/13 02:52:19;;;;;;;37.35;35.13;;;;;;;8.65;100.00;101743.00;5057702;28;20064;-72
2022/10/13 02:54:44;;;;;;;37.22;34.90;;;;;;;8.64;100.00;101725.53;5058136;28;20705;-72
2022/10/13 02:57:10;;;;;;;37.75;35.45;;;;;;;8.63;100.00;101739.66;5057032;28;20135;-72
2022/10/13 02:59:35;;;;;;;33.97;31.75;;;;;;;8.65;100.00;101732.47;5057466;28;20044;-73
2022/10/13 03:02:00;;;;;;;32.70;31.08;;;;;;;8.67;100.00;101729.72;5056647;28;20036;-73
2022/10/13 03:04:27;;;;;;;37.22;34.72;;;;;;;8.69;100.00;101727.81;5060004;28;20020;-73
2022/10/13 03:06:52;;;;;;;34.47;32.60;;;;;;;8.67;100.00;101734.13;5062190;28;20032;-72
2022/10/13 03:09:18;;;;;;;34.22;31.98;;;;;;;8.70;100.00;101729.50;5061288;28;20063;-72
2022/10/13 03:11:43;;;;;;;33.30;31.60;;;;;;;8.71;100.00;101722.44;5060889;28;20488;-72
2022/10/13 03:14:09;;;;;;;35.75;33.85;;;;;;;8.72;100.00;101724.94;5060856;28;20455;-72
2022/10/13 03:16:35;;;;;;;39.55;37.67;;;;;;;8.75;100.00;101729.13;5062028;28;20480;-72
2022/10/13 03:19:00;;;;;;;41.30;39.10;;;;;;;8.71;100.00;101738.22;5061626;28;20071;-72
2022/10/13 03:21:26;;;;;;;42.05;39.92;;;;;;;8.71;100.00;101735.59;5061225;28;20028;-72
2022/10/13 03:23:51;;;;;;;41.38;39.22;;;;;;;8.58;100.00;101704.94;5062466;28;20392;-73
2022/10/13 03:26:16;;;;;;;39.92;37.80;;;;;;;8.76;100.00;101722.94;5059534;28;20108;-73
2022/10/13 03:28:42;;;;;;;39.85;37.97;;;;;;;8.65;100.00;101698.25;5062312;28;20543;-73
2022/10/13 03:31:09;;;;;;;44.40;42.22;;;;;;;8.83;100.00;101724.13;5059767;28;20032;-73
2022/10/13 03:33:35;;;;;;;43.45;41.22;;;;;;;8.89;100.00;101728.94;5060167;28;20118;-73
2022/10/13 03:36:03;;;;;;;42.72;40.40;;;;;;;8.93;100.00;101724.25;5061881;28;20051;-73
2022/10/13 03:38:30;;;;;;;41.45;39.50;;;;;;;8.96;100.00;101719.59;5060175;28;20028;-73
2022/10/13 03:40:55;;;;;;;44.55;41.55;;;;;;;9.01;100.00;101711.34;5061161;28;20487;-73
2022/10/13 03:43:21;;;;;;;42.28;39.90;;;;;;;9.03;100.00;101710.25;5060280;28;20040;-73
2022/10/13 03:45:57;;;;;;;51.00;48.08;;;;;;;9.05;100.00;101712.78;5061721;28;20428;-72
2022/10/13 03:48:23;;;;;;;46.30;43.58;;;;;;;9.07;100.00;101711.72;5062175;28;20028;-72
2022/10/13 03:50:48;;;;;;;48.20;45.70;;;;;;;9.05;100.00;101711.00;5060227;28;20513;-72
2022/10/13 03:53:14;;;;;;;51.97;49.08;;;;;;;9.07;100.00;101726.69;5061161;28;20033;-72
2022/10/13 03:55:39;;;;;;;48.88;46.08;;;;;;;8.96;100.00;101703.81;5059255;28;20103;-72
2022/10/13 03:58:05;;;;;;;47.08;44.40;;;;;;;8.96;100.00;101698.53;5060883;28;20035;-73
2022/10/13 04:00:30;;;;;;;49.50;47.30;;;;;;;9.15;100.00;101723.47;5059664;28;20070;-73
2022/10/13 04:02:55;;;;;;;45.60;43.35;;;;;;;9.20;100.00;101726.56;5061081;28;20036;-72
2022/10/13 04:05:21;;;;;;;51.28;48.15;;;;;;;9.23;100.00;101715.78;5060751;28;20131;-72
2022/10/13 04:07:46;;;;;;;51.35;48.63;;;;;;;9.24;100.00;101720.09;5060391;28;20031;-72
2022/10/13 04:10:12;;;;;;;52.20;49.60;;;;;;;9.15;100.00;101707.66;5060769;28;20036;-73
2022/10/13 04:12:37;;;;;;;50.20;47.55;;;;;;;9.18;100.00;101707.41;5060147;28;20041;-73
2022/10/13 04:15:03;;;;;;;60.35;56.63;;;;;;;9.15;100.00;101718.19;5056561;28;20083;-73
2022/10/13 04:17:29;;;;;;;56.67;53.65;;;;;;;9.11;100.00;101703.59;5060823;28;20024;-73
2022/10/13 04:19:54;;;;;;;50.72;48.05;;;;;;;9.03;100.00;101702.38;5061002;28;20032;-73
2022/10/13 04:22:19;;;;;;;52.50;49.22;;;;;;;8.97;100.00;101700.22;5060455;28;20494;-73
2022/10/13 04:24:45;;;;;;;50.33;47.13;;;;;;;8.96;100.00;101698.53;5060116;28;20025;-72
2022/10/13 04:27:11;;;;;;;41.55;39.30;;;;;;;8.95;100.00;101691.63;5060129;28;20096;-72
2022/10/13 04:29:36;;;;;;;37.53;35.40;;;;;;;8.89;100.00;101664.94;5060210;28;20472;-72
2022/10/13 04:32:01;;;;;;;42.42;40.03;;;;;;;9.02;100.00;101677.00;5058973;28;20073;-73
2022/10/13 04:34:27;;;;;;;40.15;37.90;;;;;;;8.92;100.00;101681.31;5060626;28;20519;-73
2022/10/13 04:36:52;;;;;;;38.78;36.55;;;;;;;8.91;100.00;101684.91;5057437;28;20048;-73
2022/10/13 04:39:18;;;;;;;35.65;33.40;;;;;;;8.89;100.00;101680.72;5060265;28;20021;-73
2022/10/13 04:41:44;;;;;;;35.88;33.70;;;;;;;8.91;100.00;101684.91;5059872;28;20024;-72
2022/10/13 04:44:09;;;;;;;34.10;32.20;;;;;;;8.93;100.00;101683.00;5058828;28;20029;-73
2022/10/13 04:46:35;;;;;;;35.55;33.38;;;;;;;8.95;100.00;101677.59;5059553;28;20696;-73
2022/10/13 04:49:00;;;;;;;35.08;33.17;;;;;;;8.99;100.00;101676.41;5061454;28;20194;-73
2022/10/13 04:51:26;;;;;;;34.72;32.75;;;;;;;8.86;100.00;101660.72;5061064;28;20025;-73
2022/10/13 04:53:59;;;;;;;34.00;32.10;;;;;;;8.89;100.00;101678.09;5059458;28;20059;-72
2022/10/13 04:56:26;;;;;;;36.58;33.50;;;;;;;8.90;100.00;101670.06;5060991;28;20028;-72
2022/10/13 04:58:51;;;;;;;30.48;28.90;;;;;;;8.96;100.00;101677.47;5059033;28;20103;-73
2022/10/13 05:01:19;;;;;;;34.53;32.35;;;;;;;9.00;100.00;101678.91;5058672;28;20029;-73
2022/10/13 05:03:45;;;;;;;34.72;32.50;;;;;;;8.96;100.00;101660.84;5057889;28;20035;-72
2022/10/13 05:06:16;;;;;;;39.35;37.22;;;;;;;9.09;100.00;101672.09;5056162;28;20484;-72
2022/10/13 05:08:42;;;;;;;40.60;37.88;;;;;;;9.07;100.00;101677.47;5055748;28;20043;-72
2022/10/13 05:11:07;;;;;;;36.60;34.60;;;;;;;9.11;100.00;101674.63;5057443;28;20019;-72
2022/10/13 05:13:32;;;;;;;39.45;37.35;;;;;;;9.08;100.00;101659.91;5055688;28;20090;-72
2022/10/13 05:15:58;;;;;;;39.70;36.90;;;;;;;9.04;100.00;101661.94;5057693;28;20118;-72
2022/10/13 05:18:23;;;;;;;38.88;36.55;;;;;;;9.02;100.00;101661.22;5056995;28;20028;-73
2022/10/13 05:20:49;;;;;;;36.30;34.17;;;;;;;9.01;100.00;101664.78;5056713;28;20032;-73
2022/10/13 05:23:15;;;;;;;35.50;33.58;;;;;;;9.00;100.00;101663.13;5056078;28;20033;-73
2022/10/13 05:25:41;;;;;;;39.63;37.65;;;;;;;8.92;100.00;101649.72;5055949;28;20058;-72
2022/10/13 05:28:07;;;;;;;35.72;33.47;;;;;;;9.03;100.00;101670.78;5054886;28;20115;-72
2022/10/13 05:30:33;;;;;;;32.85;30.70;;;;;;;9.00;100.00;101667.56;5055440;28;20724;-72
2022/10/13 05:32:58;;;;;;;34.58;32.58;;;;;;;9.02;100.00;101671.75;5054726;28;20036;-72
2022/10/13 05:35:24;;;;;;;34.88;32.90;;;;;;;9.00;100.00;101663.13;5056394;28;20033;-72
2022/10/13 05:37:50;;;;;;;35.80;33.55;;;;;;;9.00;100.00;101673.66;5056349;28;20036;-72
2022/10/13 05:40:15;;;;;;;37.42;35.05;;;;;;;9.03;100.00;101672.56;5057643;28;20044;-72
2022/10/13 05:42:41;;;;;;;36.72;34.33;;;;;;;8.97;100.00;101660.75;5056268;28;20385;-72
2022/10/13 05:45:10;;;;;;;31.55;29.67;;;;;;;8.97;100.00;101666.00;5055677;28;20047;-72
2022/10/13 05:47:35;;;;;;;34.92;32.28;;;;;;;9.00;100.00;101664.91;5055782;28;20064;-72
2022/10/13 05:50:01;;;;;;;38.33;36.13;;;;;;;8.94;100.00;101660.13;5062129;28;20133;-72
2022/10/13 05:52:28;;;;;;;33.83;31.63;;;;;;;9.01;100.00;101663.94;5061969;28;20036;-72
2022/10/13 05:54:57;;;;;;;28.98;27.17;;;;;;;8.98;100.00;101654.50;5062947;28;20037;-72
2022/10/13 05:57:34;;;;;;;36.83;34.45;;;;;;;8.94;100.00;101653.06;5054205;28;20401;-73
2022/10/13 06:00:06;;;;;;;35.35;33.13;;;;;;;8.91;100.00;101653.31;5052285;28;20059;-72
2022/10/13 06:02:38;;;;;;;29.88;28.10;;;;;;;8.92;100.00;101646.25;5054987;28;20081;-72
2022/10/13 06:05:05;;;;;;;34.20;30.67;;;;;;;8.92;100.00;101641.81;5060376;28;20108;-72
2022/10/13 06:07:31;;;;;;;36.22;33.83;;;;;;;8.90;100.00;101641.09;5058458;28;20051;-72
2022/10/13 06:09:57;;;;;;;39.58;36.92;;;;;;;8.87;100.00;101636.06;5057421;28;20029;-72
2022/10/13 06:12:23;;;;;;;37.10;33.97;;;;;;;8.88;100.00;101635.09;5057710;28;20052;-72
2022/10/13 06:14:49;;;;;;;34.45;31.45;;;;;;;8.77;100.00;101619.31;5056329;28;20036;-73
2022/10/13 06:17:15;;;;;;;33.65;31.75;;;;;;;8.78;100.00;101632.38;5058114;28;20040;-72
2022/10/13 06:19:40;;;;;;;33.85;31.08;;;;;;;8.84;100.00;101625.78;5056455;28;20037;-75
2022/10/13 06:22:06;;;;;;;33.08;31.05;;;;;;;8.80;100.00;101624.38;5057863;28;20041;-73
2022/10/13 06:24:31;;;;;;;32.58;30.00;;;;;;;8.89;100.00;101638.59;5055335;28;20661;-73
2022/10/13 06:26:57;;;;;;;34.90;31.88;;;;;;;8.92;100.00;101638.34;5057328;28;20025;-73
2022/10/13 06:29:22;;;;;;;32.83;30.48;;;;;;;8.93;100.00;101643.50;5057242;28;20120;-73
2022/10/13 06:31:48;;;;;;;31.70;29.80;;;;;;;8.93;100.00;101640.88;5056654;28;20040;-73
2022/10/13 06:34:13;;;;;;;34.97;32.70;;;;;;;8.89;100.00;101628.91;5056157;28;20028;-73
2022/10/13 06:36:39;;;;;;;34.45;31.70;;;;;;;8.87;100.00;101625.56;5054718;28;20021;-73
2022/10/13 06:39:05;;;;;;;32.85;30.77;;;;;;;8.92;100.00;101623.38;5058303;28;20092;-72
2022/10/13 06:41:30;;;;;;;33.55;31.55;;;;;;;8.95;100.00;101625.78;5060879;28;20108;-73
2022/10/13 06:43:55;;;;;;;34.58;31.95;;;;;;;9.03;100.00;101633.91;5062208;28;20465;-74
2022/10/13 06:46:21;;;;;;;34.40;32.40;;;;;;;9.03;100.00;101636.53;5061683;28;20493;-72
2022/10/13 06:48:50;;;;;;;37.00;34.30;;;;;;;9.03;100.00;101626.00;5061046;28;20044;-73
2022/10/13 06:51:15;;;;;;;36.83;34.22;;;;;;;9.07;100.00;101635.34;5061584;28;20134;-72
2022/10/13 06:53:41;;;;;;;38.55;35.72;;;;;;;9.15;100.00;101637.38;5061374;28;20078;-73
2022/10/13 06:56:07;;;;;;;36.05;33.42;;;;;;;9.07;100.00;101622.19;5060724;28;20039;-73
2022/10/13 06:58:36;;;;;;;36.53;34.22;;;;;;;9.23;100.00;101636.75;5060934;28;20028;-73
2022/10/13 07:01:02;;;;;;;34.78;32.63;;;;;;;9.29;100.00;101635.44;5066818;28;20021;-73
2022/10/13 07:03:27;;;;;;;40.53;38.00;;;;;;;9.31;100.00;101633.53;5060878;28;20456;-73
2022/10/13 07:05:52;;;;;;;41.55;38.75;;;;;;;9.34;100.00;101626.22;5061202;28;20042;-73
2022/10/13 07:08:18;;;;;;;42.65;40.25;;;;;;;9.41;100.00;101634.47;5061149;28;20044;-73
2022/10/13 07:10:44;;;;;;;46.25;42.83;;;;;;;9.43;100.00;101638.66;5060696;28;20013;-73
2022/10/13 07:13:10;;;;;;;47.95;44.15;;;;;;;9.47;100.00;101632.19;5060269;28;20416;-73
2022/10/13 07:15:39;;;;;;;47.05;44.38;;;;;;;9.51;100.00;101634.56;5059370;28;20040;-73
2022/10/13 07:18:05;;;;;;;48.20;45.40;;;;;;;9.52;100.00;101625.72;5059697;28;20473;-74
2022/10/13 07:20:30;;;;;;;49.67;46.75;;;;;;;9.58;100.00;101627.81;5059546;28;20037;-73
2022/10/13 07:22:56;;;;;;;48.05;45.10;;;;;;;9.64;100.00;101629.97;5060645;28;20028;-73
2022/10/13 07:25:21;;;;;;;56.35;53.20;;;;;;;9.64;100.00;101620.25;5060057;28;20175;-73
2022/10/13 07:27:46;;;;;;;50.88;47.90;;;;;;;9.65;100.00;101608.78;5060751;28;20495;-73
2022/10/13 07:30:12;;;;;;;47.85;44.88;;;;;;;9.86;100.00;101618.50;5059852;28;20029;-73
2022/10/13 07:32:40;;;;;;;52.92;49.97;;;;;;;10.04;100.00;101617.00;5060494;28;20036;-73
2022/10/13 07:35:07;;;;;;;59.92;56.72;;;;;;;10.09;100.00;101624.53;5059522;28;20110;-73
2022/10/13 07:37:33;;;;;;;65.78;61.95;;;;;;;10.19;100.00;101628.06;5059948;28;20033;-72
2022/10/13 07:39:59;;;;;;;68.63;64.88;;;;;;;10.25;100.00;101629.34;5059812;28;20033;-73
2022/10/13 07:42:25;;;;;;;74.72;69.72;;;;;;;10.27;100.00;101615.06;5060129;28;20036;-73
2022/10/13 07:44:50;;;;;;;76.22;71.80;;;;;;;10.42;100.00;101628.78;5058952;28;20060;-73
2022/10/13 07:47:16;;;;;;;76.50;72.45;;;;;;;10.47;100.00;101633.69;5059544;28;20429;-73
2022/10/13 07:49:41;;;;;;;95.97;91.28;;;;;;;10.52;100.00;101626.22;5058874;28;20033;-73
2022/10/13 07:52:06;;;;;;;83.15;79.10;;;;;;;10.58;100.00;101624.84;5059550;28;20504;-73
2022/10/13 07:54:32;;;;;;;92.35;87.72;;;;;;;10.59;100.00;101630.00;5049475;28;20039;-73
2022/10/13 07:56:57;;;;;;;90.90;86.30;;;;;;;10.58;100.00;101617.78;5059319;28;20066;-74
2022/10/13 07:59:23;;;;;;;88.78;84.13;;;;;;;10.50;100.00;101601.75;5059757;28;20031;-73
2022/10/13 08:01:48;;;;;;;86.80;82.25;;;;;;;10.76;100.00;101618.00;5060482;28;20028;-73
2022/10/13 08:04:13;;;;;;;84.72;80.53;;;;;;;10.73;100.00;101623.53;5059302;28;20493;-73
2022/10/13 08:06:39;;;;;;;92.43;87.65;;;;;;;10.66;100.00;101602.09;5059959;28;20025;-73
2022/10/13 08:09:05;;;;;;;84.20;80.15;;;;;;;10.81;100.00;101621.06;5058048;28;20060;-73
2022/10/13 08:11:30;;;;;;;93.40;89.10;;;;;;;10.84;100.00;101609.41;5060345;28;20040;-73
2022/10/13 08:13:59;;;;;;;83.20;79.22;;;;;;;10.80;100.00;101611.50;5060064;28;20527;-73
2022/10/13 08:16:26;;;;;;;82.70;78.75;;;;;;;10.85;100.00;101605.81;5058484;28;20036;-73
2022/10/13 08:18:52;;;;;;;93.28;89.10;;;;;;;10.91;100.00;101608.75;5059405;28;20051;-73
2022/10/13 08:21:20;;;;;;;89.88;85.07;;;;;;;11.00;100.00;101615.03;5059067;28;20025;-73
2022/10/13 08:23:46;;;;;;;91.82;87.30;;;;;;;10.96;100.00;101597.78;5059480;28;20020;-73
2022/10/13 08:26:22;;;;;;;94.57;90.10;;;;;;;11.01;100.00;101616.69;5058494;28;20584;-73
2022/10/13 08:28:47;;;;;;;100.35;95.70;;;;;;;11.10;100.00;101620.34;5058990;28;20029;-73
2022/10/13 08:31:13;;;;;;;94.53;89.82;;;;;;;11.10;100.00;101605.34;5058902;28;20036;-73
2022/10/13 08:33:40;;;;;;;98.28;93.93;;;;;;;11.18;100.00;101611.75;5059365;28;20108;-73
2022/10/13 08:36:06;;;;;;;97.20;92.15;;;;;;;10.97;100.00;101578.31;5058589;28;20491;-73
2022/10/13 08:38:31;;;;;;;97.20;92.72;;;;;;;11.13;100.00;101609.53;5059996;28;20500;-73
2022/10/13 08:40:57;;;;;;;92.50;88.03;;;;;;;11.09;100.00;101614.22;5059191;28;20052;-73
2022/10/13 08:43:24;;;;;;;94.88;90.25;;;;;;;11.07;100.00;101600.31;5059482;28;20504;-73
2022/10/13 08:45:52;;;;;;;91.05;86.80;;;;;;;11.16;100.00;101608.41;5058731;28;20170;-73
2022/10/13 08:48:21;;;;;;;94.22;89.75;;;;;;;11.29;100.00;101603.72;5058616;28;20032;-73
2022/10/13 08:50:50;;;;;;;96.38;91.55;;;;;;;11.28;100.00;101605.53;5059646;28;20024;-73
2022/10/13 08:53:26;;;;;;;91.13;86.85;;;;;;;11.27;100.00;101610.94;5066013;28;20040;-73
2022/10/13 08:56:18;;;;;;;92.32;87.97;;;;;;;11.27;100.00;101616.22;5057597;28;20032;-73
2022/10/13 08:58:44;;;;;;;87.90;83.88;;;;;;;11.25;100.00;101608.41;5058485;28;20067;-74
2022/10/13 09:01:09;;;;;;;83.00;78.88;;;;;;;11.25;100.00;101612.88;5058726;28;20033;-73
2022/10/13 09:03:43;;;;;;;93.70;89.13;;;;;;;11.30;100.00;101610.66;5058067;28;20544;-73
2022/10/13 09:06:30;;;;;;;85.75;81.50;;;;;;;11.34;100.00;101609.41;5059047;28;20108;-74
2022/10/13 09:09:04;;;;;;;90.32;85.45;;;;;;;11.39;100.00;101609.84;5059012;28;20048;-74
2022/10/13 09:11:41;;;;;;;89.65;85.57;;;;;;;11.44;100.00;101601.50;5058468;28;20036;-73
2022/10/13 09:14:10;;;;;;;87.82;83.70;;;;;;;11.51;100.00;101600.81;5058001;28;20059;-73
2022/10/13 09:16:40;;;;;;;86.85;83.18;;;;;;;11.40;100.00;101582.44;5057702;28;20500;-73
2022/10/13 09:19:26;;;;;;;92.10;87.65;;;;;;;11.74;100.00;101604.03;5058340;28;20032;-74
2022/10/13 09:21:57;;;;;;;93.05;88.97;;;;;;;11.80;100.00;101602.66;5057981;28;20032;-73
2022/10/13 09:24:23;;;;;;;;;;;;;;;11.92;100.00;101604.19;5059092;28;20104;-74
2022/10/13 09:27:01;;;;;;;88.03;83.72;;;;;;;11.99;100.00;101595.72;5058134;28;19912;-74
2022/10/13 09:29:26;;;;;;;96.82;92.28;;;;;;;11.94;100.00;101589.03;5058245;28;20024;-73
2022/10/13 09:32:11;;;;;;;97.20;92.90;;;;;;;12.12;100.00;101612.13;5057636;28;20040;-73
2022/10/13 09:34:37;;;;;;;94.00;89.80;;;;;;;11.94;100.00;101591.66;5057680;28;20027;-73
2022/10/13 09:37:04;;;;;;;97.80;92.82;;;;;;;12.01;100.00;101593.75;5056189;28;20025;-73
2022/10/13 09:39:32;;;;;;;94.00;89.50;;;;;;;12.16;100.00;101607.38;5058352;28;20032;-74
2022/10/13 09:42:29;;;;;;;99.35;94.25;;;;;;;12.17;100.00;101604.56;5065102;28;20024;-74
2022/10/13 09:45:16;;;;;;;103.22;98.03;;;;;;;12.10;100.00;101599.03;5050108;28;20048;-74
2022/10/13 09:47:49;;;;;;;97.25;93.03;;;;;;;12.17;100.00;101595.81;5057909;28;20031;-74
2022/10/13 09:50:34;;;;;;;95.20;90.53;;;;;;;12.13;100.00;101609.34;5057008;28;20048;-73
2022/10/13 09:53:24;;;;;;;95.35;90.68;;;;;;;12.14;100.00;101610.16;5057502;28;20031;-73
2022/10/13 09:56:05;;;;;;;103.93;99.07;;;;;;;12.21;100.00;101607.78;5057557;28;20593;-73
2022/10/13 09:58:33;;;;;;;97.07;91.82;;;;;;;12.09;100.00;101585.94;5057063;28;20028;-74
2022/10/13 10:00:58;;;;;;;100.20;95.30;;;;;;;12.24;100.00;101611.00;5057189;28;20039;-74
2022/10/13 10:03:42;;;;;;;95.00;90.50;;;;;;;12.23;100.00;101611.13;5057377;28;20024;-74
2022/10/13 10:06:11;;;;;;;97.43;92.40;;;;;;;12.24;100.00;101604.88;5056575;28;20036;-73
2022/10/13 10:08:49;;;;;;;101.55;96.68;;;;;;;12.21;100.00;101582.16;5056973;28;20538;-73
2022/10/13 10:11:23;;;;;;;102.15;97.20;;;;;;;12.27;100.00;101597.47;5056915;28;20051;-73
2022/10/13 10:13:51;;;;;;;101.75;96.95;;;;;;;12.20;100.00;101588.44;5057090;28;20116;-73
2022/10/13 10:16:16;;;;;;;91.03;86.35;;;;;;;12.26;100.00;101590.53;5056294;28;20435;-73
2022/10/13 10:18:48;;;;;;;91.38;87.07;;;;;;;12.42;100.00;101603.16;5057582;28;20029;-73
2022/10/13 10:21:22;;;;;;;98.60;93.97;;;;;;;12.43;100.00;101593.38;5056634;28;20517;-73
2022/10/13 10:23:54;;;;;;;97.80;93.03;;;;;;;12.42;100.00;101595.22;5057469;28;20089;-73
2022/10/13 10:26:55;;;;;;;92.18;87.72;;;;;;;12.41;100.00;101574.16;5056531;28;20025;-74
2022/10/13 10:29:37;;;;;;;103.72;98.90;;;;;;;12.62;100.00;101590.69;5047368;28;20056;-74
2022/10/13 10:32:27;;;;;;;88.90;84.85;;;;;;;12.66;100.00;101591.22;5057513;28;20036;-74
2022/10/13 10:34:59;;;;;;;91.13;86.78;;;;;;;12.54;100.00;101569.38;5057027;28;20540;-74
2022/10/13 10:38:04;;;;;;;97.43;92.72;;;;;;;12.68;100.00;101582.16;5057041;28;20067;-74
2022/10/13 10:40:47;;;;;;;97.55;92.95;;;;;;;12.81;100.00;101576.53;5024240;28;20037;-74
2022/10/13 10:43:25;;;;;;;90.30;86.05;;;;;;;12.81;100.00;101586.28;5024637;28;20037;-74
2022/10/13 10:45:54;;;;;;;97.28;92.15;;;;;;;12.85;100.00;101588.50;5023640;28;20505;-75
2022/10/13 10:48:19;;;;;;;90.45;86.28;;;;;;;12.84;100.00;101593.94;5024768;28;20092;-74
2022/10/13 10:50:45;;;;;;;88.07;83.85;;;;;;;12.71;100.00;101597.75;5024301;28;20085;-74
2022/10/13 10:53:27;;;;;;;89.95;85.72;;;;;;;12.71;100.00;101592.44;5025096;28;20045;-74
2022/10/13 10:56:04;;;;;;;92.88;88.72;;;;;;;12.59;100.00;101577.75;5024364;28;20041;-74
2022/10/13 10:58:43;;;;;;;91.80;87.53;;;;;;;12.69;100.00;101591.75;5024309;28;20029;-74
2022/10/13 11:01:35;;;;;;;92.13;86.13;;;;;;;12.63;100.00;101587.06;5023930;28;20108;-74
2022/10/13 11:04:29;;;;;;;89.03;84.90;;;;;;;12.67;100.00;101579.63;5024725;28;20075;-74
2022/10/13 11:06:54;;;;;;;93.45;89.43;;;;;;;12.71;100.00;101579.19;5023748;28;20099;-74
2022/10/13 11:09:41;;;;;;;84.85;80.75;;;;;;;12.72;100.00;101575.59;5024456;28;20037;-74
2022/10/13 11:12:18;;;;;;;89.13;84.90;;;;;;;12.71;100.00;101576.56;5024371;28;20049;-74
2022/10/13 11:14:53;;;;;;;89.40;85.47;;;;;;;12.69;100.00;101581.16;5024052;28;20026;-74
2022/10/13 11:17:28;;;;;;;83.68;79.75;;;;;;;12.68;100.00;101576.84;5056049;28;20082;-74
2022/10/13 11:19:55;;;;;;;83.50;79.22;;;;;;;12.65;100.00;101581.59;5055893;28;20662;-74